createdAt,value
2023-02-05T00:00:18.926Z,89.26
2023-02-05T00:02:48.248Z,89.55
2023-02-05T00:05:16.007Z,88.97
2023-02-05T00:07:43.967Z,88.57
2023-02-05T00:10:11.584Z,88.34
2023-02-05T00:12:39.618Z,88.11
2023-02-05T00:15:07.670Z,88.50
2023-02-05T00:17:36.739Z,88.15
2023-02-05T00:20:05.854Z,89.40
2023-02-05T00:22:33.445Z,90.54
2023-02-05T00:25:01.120Z,89.12
2023-02-05T00:27:28.877Z,88.89
2023-02-05T00:29:56.731Z,88.10
2023-02-05T00:32:24.303Z,88.15
2023-02-05T00:34:52.015Z,88.71
2023-02-05T00:37:20.291Z,88.44
2023-02-05T00:39:48.099Z,88.29
2023-02-05T00:42:15.588Z,89.01
2023-02-05T00:44:43.462Z,88.54
2023-02-05T00:47:11.061Z,88.52
2023-02-05T00:49:39.610Z,87.90
2023-02-05T00:52:07.207Z,87.76
2023-02-05T00:54:35.293Z,88.41
2023-02-05T00:57:02.969Z,88.15
2023-02-05T00:59:30.685Z,88.10
2023-02-05T01:01:58.421Z,87.68
2023-02-05T01:04:25.992Z,87.82
2023-02-05T01:06:53.603Z,87.59
2023-02-05T01:09:22.580Z,87.72
2023-02-05T01:11:50.125Z,87.59
2023-02-05T01:14:17.773Z,87.55
2023-02-05T01:16:45.664Z,87.52
2023-02-05T01:19:13.536Z,87.65
2023-02-05T01:21:41.412Z,87.64
2023-02-05T01:24:09.181Z,87.64
2023-02-05T01:26:36.788Z,87.43
2023-02-05T01:29:04.640Z,87.41
2023-02-05T01:31:33.584Z,87.62
2023-02-05T01:34:01.824Z,87.88
2023-02-05T01:36:29.652Z,87.57
2023-02-05T01:38:57.227Z,87.51
2023-02-05T01:41:25.012Z,87.34
2023-02-05T01:44:12.105Z,86.72
2023-02-05T01:46:41.439Z,86.91
2023-02-05T01:49:12.839Z,86.71
2023-02-05T01:51:40.733Z,87.10
2023-02-05T01:54:08.985Z,87.35
2023-02-05T01:56:41.238Z,87.32
2023-02-05T01:59:17.929Z,87.01
2023-02-05T02:01:46.927Z,87.31
2023-02-05T02:04:17.266Z,87.02
2023-02-05T02:06:45.493Z,87.10
2023-02-05T02:09:13.549Z,87.24
2023-02-05T02:11:41.932Z,87.23
2023-02-05T02:14:11.249Z,87.13
2023-02-05T02:16:39.011Z,87.33
2023-02-05T02:19:10.869Z,87.36
2023-02-05T02:22:13.197Z,88.41
2023-02-05T02:24:49.487Z,87.87
2023-02-05T02:27:36.183Z,87.92
2023-02-05T02:30:19.367Z,87.99
2023-02-05T02:33:15.073Z,88.67
2023-02-05T02:35:58.194Z,88.59
2023-02-05T02:38:34.557Z,88.35
2023-02-05T02:41:10.534Z,89.86
2023-02-05T02:43:48.938Z,89.91
2023-02-05T02:46:44.610Z,90.50
2023-02-05T02:49:19.171Z,89.56
2023-02-05T02:51:47.014Z,89.33
2023-02-05T02:54:15.966Z,89.57
2023-02-05T02:56:43.735Z,90.06
2023-02-05T02:59:14.120Z,90.67
2023-02-05T03:01:52.340Z,90.67
2023-02-05T03:04:28.016Z,90.69
2023-02-05T03:06:58.148Z,91.31
2023-02-05T03:09:32.785Z,90.98
2023-02-05T03:12:01.952Z,90.79
2023-02-05T03:14:30.938Z,90.95
2023-02-05T03:17:00.630Z,90.91
2023-02-05T03:19:32.487Z,90.91
2023-02-05T03:22:03.011Z,90.58
2023-02-05T03:24:31.730Z,89.91
2023-02-05T03:26:59.746Z,89.47
2023-02-05T03:29:31.219Z,89.25
2023-02-05T03:32:21.382Z,89.38
2023-02-05T03:35:05.252Z,89.82
2023-02-05T03:37:52.764Z,88.96
2023-02-05T03:40:51.865Z,88.46
2023-02-05T03:43:25.710Z,88.84
2023-02-05T03:46:29.535Z,88.27
2023-02-05T03:49:14.814Z,88.27
2023-02-05T03:52:10.086Z,88.03
2023-02-05T03:54:50.612Z,87.76
2023-02-05T03:57:33.067Z,88.09
2023-02-05T04:00:01.391Z,87.64
2023-02-05T04:02:30.240Z,87.90
2023-02-05T04:04:58.191Z,87.40
2023-02-05T04:07:26.052Z,87.37
2023-02-05T04:09:53.728Z,87.60
2023-02-05T04:12:22.958Z,87.86
2023-02-05T04:14:50.539Z,87.82
2023-02-05T04:17:18.302Z,87.44
2023-02-05T04:19:46.959Z,87.95
2023-02-05T04:22:15.880Z,87.92
2023-02-05T04:24:49.762Z,87.55
2023-02-05T04:27:18.080Z,87.36
2023-02-05T04:29:45.654Z,87.25
2023-02-05T04:32:13.515Z,87.18
2023-02-05T04:34:41.213Z,87.92
2023-02-05T04:37:11.666Z,88.26
2023-02-05T04:39:40.786Z,87.70
2023-02-05T04:42:08.549Z,88.19
2023-02-05T04:44:36.333Z,88.10
2023-02-05T04:47:04.237Z,88.46
2023-02-05T04:49:33.537Z,88.54
2023-02-05T04:52:01.147Z,87.87
2023-02-05T04:54:28.988Z,87.69
2023-02-05T04:56:56.674Z,86.92
2023-02-05T04:59:24.397Z,87.15
2023-02-05T05:01:52.030Z,86.72
2023-02-05T05:04:19.597Z,86.83
2023-02-05T05:06:47.363Z,86.91
2023-02-05T05:09:15.065Z,86.97
2023-02-05T05:11:43.201Z,86.71
2023-02-05T05:14:10.852Z,86.36
2023-02-05T05:16:38.416Z,86.46
2023-02-05T05:19:06.236Z,86.68
2023-02-05T05:21:33.810Z,87.09
2023-02-05T05:24:01.589Z,86.99
2023-02-05T05:26:30.223Z,86.69
2023-02-05T05:28:57.890Z,86.59
2023-02-05T05:31:25.595Z,86.53
2023-02-05T05:33:53.424Z,86.53
2023-02-05T05:36:21.012Z,86.36
2023-02-05T05:38:48.594Z,86.57
2023-02-05T05:41:43.796Z,86.46
2023-02-05T05:44:11.459Z,85.69
2023-02-05T05:46:40.949Z,86.02
2023-02-05T05:49:08.557Z,86.51
2023-02-05T05:51:36.108Z,86.67
2023-02-05T05:54:04.300Z,86.33
2023-02-05T05:56:31.868Z,86.61
2023-02-05T05:58:59.387Z,87.06
2023-02-05T06:01:26.951Z,86.37
2023-02-05T06:03:54.530Z,86.12
2023-02-05T06:06:22.100Z,86.01
2023-02-05T06:08:49.960Z,85.62
2023-02-05T06:11:17.745Z,85.92
2023-02-05T06:13:45.624Z,85.23
2023-02-05T06:16:13.706Z,84.86
2023-02-05T06:18:42.261Z,85.00
2023-02-05T06:21:10.903Z,85.57
2023-02-05T06:23:39.326Z,85.29
2023-02-05T06:26:07.020Z,85.94
2023-02-05T06:28:35.064Z,86.27
2023-02-05T06:31:03.499Z,85.54
2023-02-05T06:33:31.377Z,84.97
2023-02-05T06:35:58.945Z,85.77
2023-02-05T06:38:26.733Z,86.01
2023-02-05T06:40:54.405Z,85.99
2023-02-05T06:43:22.129Z,85.28
2023-02-05T06:45:49.691Z,85.14
2023-02-05T06:48:18.346Z,85.51
2023-02-05T06:50:46.393Z,85.33
2023-02-05T06:53:14.172Z,85.70
2023-02-05T06:55:41.754Z,85.21
2023-02-05T06:58:09.421Z,85.45
2023-02-05T07:00:37.233Z,84.96
2023-02-05T07:03:05.008Z,84.69
2023-02-05T07:05:35.004Z,84.89
2023-02-05T07:08:04.317Z,83.92
2023-02-05T07:10:32.323Z,83.80
2023-02-05T07:12:59.959Z,84.33
2023-02-05T07:15:27.460Z,83.75
2023-02-05T07:17:55.500Z,83.41
2023-02-05T07:20:23.529Z,83.06
2023-02-05T07:22:51.143Z,81.81
2023-02-05T07:25:18.729Z,82.71
2023-02-05T07:27:46.561Z,82.45
2023-02-05T07:30:15.093Z,81.99
2023-02-05T07:32:42.691Z,82.10
2023-02-05T07:35:10.230Z,81.24
2023-02-05T07:37:39.601Z,81.43
2023-02-05T07:40:08.031Z,81.30
2023-02-05T07:42:35.841Z,82.09
2023-02-05T07:45:04.979Z,80.03
2023-02-05T07:47:32.845Z,78.79
2023-02-05T07:50:00.565Z,79.17
2023-02-05T07:52:28.455Z,79.15
2023-02-05T07:54:55.975Z,78.16
2023-02-05T07:57:23.897Z,78.42
2023-02-05T07:59:52.656Z,78.80
2023-02-05T08:02:20.729Z,78.84
2023-02-05T08:04:48.271Z,77.66
2023-02-05T08:07:16.167Z,78.42
2023-02-05T08:09:47.686Z,77.97
2023-02-05T08:12:15.791Z,78.33
2023-02-05T08:14:43.545Z,77.22
2023-02-05T08:17:11.138Z,77.47
2023-02-05T08:19:39.066Z,78.06
2023-02-05T08:22:06.845Z,77.04
2023-02-05T08:24:34.412Z,77.29
2023-02-05T08:27:02.327Z,77.69
2023-02-05T08:29:30.189Z,77.60
2023-02-05T08:31:57.944Z,77.11
2023-02-05T08:34:25.581Z,76.11
2023-02-05T08:36:53.280Z,76.38
2023-02-05T08:39:20.987Z,76.05
2023-02-05T08:41:48.679Z,77.13
2023-02-05T08:44:16.278Z,76.38
2023-02-05T08:46:50.127Z,75.16
2023-02-05T08:49:18.536Z,73.68
2023-02-05T08:51:46.467Z,70.72
2023-02-05T08:54:15.374Z,71.19
2023-02-05T08:56:43.882Z,72.22
2023-02-05T08:59:12.373Z,71.70
2023-02-05T09:01:43.244Z,72.82
2023-02-05T09:04:17.943Z,72.41
2023-02-05T09:06:45.551Z,72.16
2023-02-05T09:09:13.486Z,71.90
2023-02-05T09:11:41.743Z,70.52
2023-02-05T09:14:10.026Z,70.06
2023-02-05T09:16:38.223Z,70.38
2023-02-05T09:19:05.955Z,70.17
2023-02-05T09:21:35.672Z,68.54
2023-02-05T09:24:03.963Z,66.99
2023-02-05T09:26:31.614Z,67.48
2023-02-05T09:28:59.481Z,68.81
2023-02-05T09:31:27.180Z,68.63
2023-02-05T09:33:56.002Z,66.33
2023-02-05T09:36:23.839Z,66.17
2023-02-05T09:39:02.001Z,66.79
2023-02-05T09:41:37.284Z,67.49
2023-02-05T09:44:25.143Z,66.23
2023-02-05T09:46:52.672Z,67.05
2023-02-05T09:49:38.691Z,67.06
2023-02-05T09:52:21.894Z,66.82
2023-02-05T09:54:52.446Z,66.69
2023-02-05T09:57:49.358Z,67.39
2023-02-05T10:00:29.503Z,68.07
2023-02-05T10:02:59.097Z,65.75
2023-02-05T10:05:26.923Z,66.37
2023-02-05T10:08:07.127Z,68.34
2023-02-05T10:10:39.659Z,69.91
2023-02-05T10:13:27.837Z,70.73
2023-02-05T10:16:04.750Z,71.17
2023-02-05T10:19:01.104Z,70.71
2023-02-05T10:21:52.069Z,70.93
2023-02-05T10:24:38.508Z,71.54
2023-02-05T10:27:13.950Z,71.83
2023-02-05T10:29:53.957Z,71.31
2023-02-05T10:32:25.868Z,71.41
2023-02-05T10:35:01.604Z,71.63
2023-02-05T10:37:45.133Z,73.94
2023-02-05T10:40:18.404Z,73.10
2023-02-05T10:43:27.309Z,73.04
2023-02-05T10:45:54.912Z,73.40
2023-02-05T10:48:24.472Z,72.33
2023-02-05T10:51:01.408Z,73.97
2023-02-05T10:53:29.416Z,72.60
2023-02-05T10:55:57.833Z,73.12
2023-02-05T10:58:39.213Z,75.08
2023-02-05T11:01:27.711Z,75.99
2023-02-05T11:04:00.311Z,76.92
2023-02-05T11:06:29.837Z,77.32
2023-02-05T11:08:57.750Z,76.51
2023-02-05T11:11:28.511Z,75.91
2023-02-05T11:14:00.893Z,74.54
2023-02-05T11:16:48.756Z,74.17
2023-02-05T11:19:23.239Z,72.98
2023-02-05T11:21:55.779Z,71.42
2023-02-05T11:24:28.733Z,70.75
2023-02-05T11:27:18.135Z,67.24
2023-02-05T11:29:45.897Z,66.91
2023-02-05T11:32:38.089Z,71.87
2023-02-05T11:35:25.371Z,72.53
2023-02-05T11:38:10.407Z,73.30
2023-02-05T11:40:38.212Z,73.20
2023-02-05T11:43:25.134Z,72.55
2023-02-05T11:45:53.120Z,72.76
2023-02-05T11:48:44.962Z,72.39
2023-02-05T11:51:15.390Z,71.11
2023-02-05T11:53:51.003Z,70.99
2023-02-05T11:56:22.820Z,74.49
2023-02-05T11:59:05.163Z,76.66
2023-02-05T12:01:34.229Z,78.55
2023-02-05T12:04:17.194Z,78.14
2023-02-05T12:06:53.626Z,78.80
2023-02-05T12:09:23.366Z,78.55
2023-02-05T12:12:11.849Z,79.89
2023-02-05T12:15:10.280Z,80.06
2023-02-05T12:17:50.865Z,79.54
2023-02-05T12:20:23.064Z,79.30
2023-02-05T12:23:23.731Z,79.36
2023-02-05T12:25:58.515Z,78.41
2023-02-05T12:28:42.766Z,78.01
2023-02-05T12:31:19.938Z,78.03
2023-02-05T12:34:02.517Z,78.25
2023-02-05T12:36:46.280Z,77.90
2023-02-05T12:39:33.690Z,78.71
2023-02-05T12:42:26.498Z,78.66
2023-02-05T12:44:57.743Z,80.05
2023-02-05T12:47:38.577Z,81.25
2023-02-05T12:50:19.403Z,81.06
2023-02-05T12:53:24.569Z,83.47
2023-02-05T12:56:11.092Z,83.81
2023-02-05T12:59:10.764Z,85.06
2023-02-05T13:02:11.248Z,85.20
2023-02-05T13:04:40.700Z,85.59
2023-02-05T13:07:18.345Z,86.75
2023-02-05T13:09:49.271Z,85.60
2023-02-05T13:12:19.063Z,84.97
2023-02-05T13:15:00.574Z,85.45
2023-02-05T13:17:29.541Z,84.15
2023-02-05T13:19:58.470Z,86.10
2023-02-05T13:22:45.046Z,85.03
2023-02-05T13:25:59.583Z,84.29
2023-02-05T13:28:42.781Z,83.93
2023-02-05T13:31:32.019Z,83.46
2023-02-05T13:34:07.009Z,83.76
2023-02-05T13:36:57.634Z,83.89
2023-02-05T13:39:47.531Z,84.43
2023-02-05T13:42:35.845Z,84.79
2023-02-05T13:45:37.956Z,85.50
2023-02-05T13:48:10.410Z,86.53
2023-02-05T13:50:41.622Z,85.11
2023-02-05T13:53:44.064Z,86.49
2023-02-05T13:56:24.557Z,86.78
2023-02-05T13:58:56.706Z,86.87
2023-02-05T14:01:29.844Z,88.20
2023-02-05T14:04:07.299Z,87.34
2023-02-05T14:06:39.106Z,87.39
2023-02-05T14:09:25.149Z,87.71
2023-02-05T14:11:57.610Z,86.57
2023-02-05T14:14:29.189Z,88.16
2023-02-05T14:16:59.256Z,87.91
2023-02-05T14:19:46.253Z,90.10
2023-02-05T14:22:35.338Z,89.09
2023-02-05T14:25:03.021Z,89.78
2023-02-05T14:27:31.442Z,90.11
2023-02-05T14:29:59.719Z,91.59
2023-02-05T14:32:27.423Z,90.83
2023-02-05T14:35:02.300Z,90.76
2023-02-05T14:37:40.903Z,92.37
2023-02-05T14:40:38.004Z,91.39
2023-02-05T14:43:22.768Z,91.89
2023-02-05T14:45:51.428Z,92.37
2023-02-05T14:48:27.165Z,91.07
2023-02-05T14:51:31.664Z,91.90
2023-02-05T14:54:07.199Z,94.00
2023-02-05T14:56:37.618Z,93.36
2023-02-05T14:59:17.877Z,94.07
2023-02-05T15:01:46.838Z,93.01
2023-02-05T15:04:40.749Z,93.64
2023-02-05T15:07:14.478Z,94.15
2023-02-05T15:09:46.302Z,94.21
2023-02-05T15:12:34.334Z,94.32
2023-02-05T15:15:27.883Z,93.66
2023-02-05T15:17:58.243Z,93.78
2023-02-05T15:20:27.899Z,93.89
2023-02-05T15:23:05.382Z,93.63
2023-02-05T15:25:42.681Z,94.33
2023-02-05T15:28:20.579Z,94.34
2023-02-05T15:31:05.854Z,94.11
2023-02-05T15:33:40.250Z,93.41
2023-02-05T15:36:13.293Z,91.83
2023-02-05T15:39:02.846Z,91.27
2023-02-05T15:41:31.027Z,91.55
2023-02-05T15:44:02.710Z,91.44
2023-02-05T15:46:32.784Z,91.32
2023-02-05T15:49:00.474Z,91.38
2023-02-05T15:51:34.508Z,90.42
2023-02-05T15:54:03.390Z,90.18
2023-02-05T15:56:39.558Z,90.54
2023-02-05T15:59:10.271Z,90.67
2023-02-05T16:01:49.448Z,90.61
2023-02-05T16:04:23.058Z,90.70
2023-02-05T16:06:55.271Z,90.08
2023-02-05T16:09:25.190Z,89.66
2023-02-05T16:11:54.223Z,90.46
2023-02-05T16:14:28.808Z,90.53
2023-02-05T16:17:07.923Z,89.98
2023-02-05T16:19:46.430Z,90.21
2023-02-05T16:22:36.209Z,90.22
2023-02-05T16:25:07.325Z,89.52
2023-02-05T16:27:36.087Z,89.21
2023-02-05T16:30:08.123Z,89.57
2023-02-05T16:32:40.008Z,89.82
2023-02-05T16:35:12.986Z,89.58
2023-02-05T16:37:40.699Z,90.81
2023-02-05T16:40:09.843Z,90.83
2023-02-05T16:42:43.360Z,91.21
2023-02-05T16:45:11.056Z,90.55
2023-02-05T16:47:39.283Z,90.73
2023-02-05T16:50:37.484Z,90.86
2023-02-05T16:53:16.915Z,91.52
2023-02-05T16:55:44.587Z,90.70
2023-02-05T16:58:22.347Z,90.48
2023-02-05T17:01:00.952Z,90.83
2023-02-05T17:03:31.279Z,90.99
2023-02-05T17:06:00.709Z,90.66
2023-02-05T17:08:33.535Z,91.82
2023-02-05T17:11:06.785Z,91.23
2023-02-05T17:13:42.571Z,91.44
2023-02-05T17:16:29.971Z,91.42
2023-02-05T17:19:25.482Z,90.99
2023-02-05T17:22:27.721Z,91.63
2023-02-05T17:24:55.488Z,90.68
2023-02-05T17:27:30.643Z,90.28
2023-02-05T17:29:58.922Z,91.26
2023-02-05T17:32:26.565Z,91.02
2023-02-05T17:34:54.539Z,91.95
2023-02-05T17:37:22.117Z,91.38
2023-02-05T17:39:51.696Z,90.63
2023-02-05T17:42:23.959Z,90.55
2023-02-05T17:44:51.878Z,91.34
2023-02-05T17:47:20.278Z,92.17
2023-02-05T17:49:48.015Z,90.71
2023-02-05T17:52:15.828Z,90.66
2023-02-05T17:54:46.338Z,89.91
2023-02-05T17:57:21.382Z,91.07
2023-02-05T17:59:49.626Z,90.93
2023-02-05T18:02:17.581Z,90.82
2023-02-05T18:04:46.493Z,91.27
2023-02-05T18:07:40.149Z,91.34
2023-02-05T18:10:12.834Z,89.83
2023-02-05T18:12:40.490Z,90.44
2023-02-05T18:15:08.744Z,91.29
2023-02-05T18:17:37.544Z,90.39
2023-02-05T18:20:06.045Z,90.80
2023-02-05T18:22:34.443Z,91.04
2023-02-05T18:25:02.378Z,91.16
2023-02-05T18:27:30.971Z,90.79
2023-02-05T18:29:58.655Z,91.03
2023-02-05T18:32:26.408Z,90.64
2023-02-05T18:34:54.202Z,91.09
2023-02-05T18:37:22.419Z,90.89
2023-02-05T18:39:50.960Z,90.79
2023-02-05T18:42:19.768Z,90.69
2023-02-05T18:44:51.238Z,89.95
2023-02-05T18:47:27.640Z,90.20
2023-02-05T18:49:55.305Z,90.23
2023-02-05T18:52:26.700Z,90.54
2023-02-05T18:54:54.369Z,90.93
2023-02-05T18:57:22.327Z,89.83
2023-02-05T18:59:50.319Z,90.19
2023-02-05T19:02:17.916Z,89.77
2023-02-05T19:04:45.822Z,90.07
2023-02-05T19:07:13.617Z,89.23
2023-02-05T19:09:41.210Z,90.03
2023-02-05T19:12:08.703Z,89.49
2023-02-05T19:14:36.826Z,89.80
2023-02-05T19:17:07.245Z,89.70
2023-02-05T19:19:35.328Z,90.11
2023-02-05T19:22:05.457Z,89.78
2023-02-05T19:24:33.752Z,89.63
2023-02-05T19:27:01.908Z,90.26
2023-02-05T19:29:29.947Z,91.26
2023-02-05T19:31:58.766Z,90.04
2023-02-05T19:34:27.925Z,90.00
2023-02-05T19:36:58.583Z,90.70
2023-02-05T19:39:26.394Z,90.67
2023-02-05T19:41:54.134Z,90.42
2023-02-05T19:44:22.868Z,90.58
2023-02-05T19:46:54.185Z,90.74
2023-02-05T19:49:22.082Z,90.43
2023-02-05T19:51:55.250Z,90.25
2023-02-05T19:54:23.021Z,89.25
2023-02-05T19:56:51.198Z,89.68
2023-02-05T19:59:19.037Z,90.06
2023-02-05T20:01:46.788Z,89.65
2023-02-05T20:04:17.207Z,89.35
2023-02-05T20:06:46.389Z,89.94
2023-02-05T20:09:15.662Z,89.07
2023-02-05T20:11:45.023Z,88.50
2023-02-05T20:14:12.630Z,88.60
2023-02-05T20:16:40.603Z,89.34
2023-02-05T20:19:10.228Z,89.05
2023-02-05T20:21:38.713Z,88.69
2023-02-05T20:24:07.575Z,88.48
2023-02-05T20:26:36.060Z,88.67
2023-02-05T20:29:22.868Z,88.59
2023-02-05T20:31:51.983Z,88.15
2023-02-05T20:34:23.820Z,88.49
2023-02-05T20:36:53.891Z,87.84
2023-02-05T20:39:22.923Z,88.06
2023-02-05T20:41:51.491Z,88.49
2023-02-05T20:44:19.238Z,88.06
2023-02-05T20:46:47.071Z,88.35
2023-02-05T20:49:15.808Z,87.97
2023-02-05T20:51:43.564Z,87.95
2023-02-05T20:54:11.485Z,88.00
2023-02-05T20:56:39.402Z,87.70
2023-02-05T20:59:07.730Z,86.83
2023-02-05T21:01:36.404Z,87.58
2023-02-05T21:04:04.626Z,87.55
2023-02-05T21:06:34.196Z,87.96
2023-02-05T21:09:01.986Z,88.16
2023-02-05T21:11:30.163Z,87.77
2023-02-05T21:13:58.812Z,87.29
2023-02-05T21:16:27.595Z,87.75
2023-02-05T21:18:55.344Z,87.80
2023-02-05T21:21:27.737Z,87.38
2023-02-05T21:23:57.084Z,86.90
2023-02-05T21:26:29.440Z,87.28
2023-02-05T21:29:01.626Z,86.27
2023-02-05T21:31:36.157Z,86.16
2023-02-05T21:34:04.654Z,86.34
2023-02-05T21:36:33.550Z,86.50
2023-02-05T21:39:01.179Z,86.23
2023-02-05T21:41:28.942Z,86.09
2023-02-05T21:43:59.112Z,86.67
2023-02-05T21:46:29.420Z,86.14
2023-02-05T21:48:58.229Z,86.06
2023-02-05T21:51:28.079Z,85.77
2023-02-05T21:53:58.777Z,86.21
2023-02-05T21:56:29.353Z,86.42
2023-02-05T21:58:57.223Z,86.53
2023-02-05T22:01:26.810Z,85.58
2023-02-05T22:04:00.709Z,85.92
2023-02-05T22:06:30.505Z,85.43
2023-02-05T22:08:59.296Z,85.03
2023-02-05T22:11:27.016Z,85.55
2023-02-05T22:13:55.116Z,85.36
2023-02-05T22:16:24.425Z,85.56
2023-02-05T22:18:53.269Z,84.95
2023-02-05T22:21:23.121Z,84.18
2023-02-05T22:23:52.036Z,85.10
2023-02-05T22:26:24.062Z,84.72
2023-02-05T22:28:52.323Z,84.80
2023-02-05T22:31:20.533Z,85.02
2023-02-05T22:33:49.307Z,85.78
2023-02-05T22:36:18.787Z,85.48
2023-02-05T22:38:46.571Z,85.47
2023-02-05T22:41:16.809Z,85.68
2023-02-05T22:43:44.747Z,85.07
2023-02-05T22:46:14.155Z,84.69
2023-02-05T22:48:43.136Z,84.57
2023-02-05T22:51:14.008Z,85.30
2023-02-05T22:53:41.897Z,85.16
2023-02-05T22:56:12.729Z,85.46
2023-02-05T22:58:41.650Z,86.34
2023-02-05T23:01:26.025Z,86.55
2023-02-05T23:03:53.791Z,87.15
2023-02-05T23:06:23.571Z,86.92
2023-02-05T23:08:59.156Z,86.52
2023-02-05T23:11:27.637Z,87.32
2023-02-05T23:13:56.301Z,87.44
2023-02-05T23:16:26.118Z,87.89
2023-02-05T23:18:56.299Z,88.55
2023-02-05T23:21:24.934Z,88.54
2023-02-05T23:23:52.994Z,88.38
2023-02-05T23:26:22.300Z,88.00
2023-02-05T23:28:49.951Z,88.75
2023-02-05T23:31:17.829Z,89.34
2023-02-05T23:33:45.474Z,90.20
2023-02-05T23:36:13.247Z,89.74
2023-02-05T23:38:40.904Z,89.81
2023-02-05T23:41:08.672Z,89.46
2023-02-05T23:43:36.922Z,89.79
2023-02-05T23:46:05.367Z,88.65
2023-02-05T23:48:33.381Z,88.82
2023-02-05T23:51:01.071Z,88.22
2023-02-05T23:53:28.654Z,87.66
2023-02-05T23:55:56.346Z,87.70
2023-02-05T23:58:26.147Z,87.31
